KMHR/MHR METAR and TAF weather

Enter ICAO airport designator
Station Type Date Time Source
KMHR METAR 2019/06/16 19:45 UTC NOAA

KMHR 161945Z 22007KT 10SM SKC 26/14 A2981


Station Type Date Time Source
KMHR Decoded METAR 2019/06/16 19:45 UTC NOAA

Sacramento, Sacramento Mather Airport, CA, United States (KMHR) 38-33N 121-18W
Jun 16, 2019 - 03:45 PM EDT / 2019.06.16 1945 UTC
Wind: from the SW (220 degrees) at 8 MPH (7 KT):0
Visibility: 10 mile(s):0
Sky conditions: clear
Temperature: 78 F (26 C)
Dew Point: 57 F (14 C)
Relative Humidity: 47%
Pressure (altimeter): 29.81 in. Hg (1009 hPa)
ob: KMHR 161945Z 22007KT 10SM SKC 26/14 A2981
cycle: 20

Station Type Date Time Source
KMHR TAF 2019/06/16 18:36 UTC NOAA

TAF KMHR 161735Z 1618/1718 20007KT P6SM SKC
AMD NOT SKED

Example: see airport list